createdAt,value
2017-01-09T00:01:37.406Z,-1.43
2017-01-09T00:03:49.976Z,-1.43
2017-01-09T00:06:02.300Z,-1.41
2017-01-09T00:08:09.710Z,-1.43
2017-01-09T00:10:21.991Z,-1.43
2017-01-09T00:12:34.245Z,-1.45
2017-01-09T00:14:46.681Z,-1.43
2017-01-09T00:16:59.082Z,-1.43
2017-01-09T00:19:12.450Z,-1.46
2017-01-09T00:21:25.551Z,-1.45
2017-01-09T00:23:32.907Z,-1.46
2017-01-09T00:25:45.313Z,-1.46
2017-01-09T00:27:52.646Z,-1.45
2017-01-09T00:30:04.909Z,-1.46
2017-01-09T00:32:12.180Z,-1.46
2017-01-09T00:34:24.555Z,-1.46
2017-01-09T00:36:37.839Z,-1.46
2017-01-09T00:38:50.134Z,-1.48
2017-01-09T00:41:02.396Z,-1.48
2017-01-09T00:43:14.843Z,-1.48
2017-01-09T00:45:27.218Z,-1.46
2017-01-09T00:47:40.647Z,-1.46
2017-01-09T00:49:53.064Z,-1.48
2017-01-09T00:52:05.368Z,-1.48
2017-01-09T00:54:18.908Z,-1.48
2017-01-09T00:56:32.531Z,-1.48
2017-01-09T00:58:44.951Z,-1.49
2017-01-09T01:01:01.126Z,-1.49
2017-01-09T01:03:13.522Z,-1.48
2017-01-09T01:05:25.925Z,-1.48
2017-01-09T01:07:38.150Z,-1.49
2017-01-09T01:09:50.627Z,-1.49
2017-01-09T01:12:06.036Z,-1.49
2017-01-09T01:14:18.420Z,-1.49
2017-01-09T01:16:30.808Z,-1.49
2017-01-09T01:18:44.384Z,-1.49
2017-01-09T01:20:56.753Z,-1.49
2017-01-09T01:23:09.190Z,-1.49
2017-01-09T01:25:21.555Z,-1.48
2017-01-09T01:27:35.047Z,-1.49
2017-01-09T01:29:48.014Z,-1.49
2017-01-09T01:31:55.520Z,-1.49
2017-01-09T01:34:07.825Z,-1.48
2017-01-09T01:36:21.138Z,-1.49
2017-01-09T01:38:33.442Z,-1.49
2017-01-09T01:40:46.847Z,-1.51
2017-01-09T01:42:54.457Z,-1.51
2017-01-09T01:45:06.850Z,-1.49
2017-01-09T01:47:14.175Z,-1.51
2017-01-09T01:49:26.695Z,-1.51
2017-01-09T01:51:34.220Z,-1.49
2017-01-09T01:53:46.735Z,-1.51
2017-01-09T01:55:59.159Z,-1.51
2017-01-09T01:58:12.674Z,-1.51
2017-01-09T02:00:25.439Z,-1.51
2017-01-09T02:02:38.198Z,-1.51
2017-01-09T02:04:51.018Z,-1.52
2017-01-09T02:07:03.413Z,-1.51
2017-01-09T02:09:15.826Z,-1.51
2017-01-09T02:11:28.178Z,-1.52
2017-01-09T02:13:40.349Z,-1.52
2017-01-09T02:15:54.636Z,-1.54
2017-01-09T02:18:07.109Z,-1.52
2017-01-09T02:20:19.614Z,-1.52
2017-01-09T02:22:27.027Z,-1.52
2017-01-09T02:24:40.386Z,-1.54
2017-01-09T02:26:53.712Z,-1.52
2017-01-09T02:29:06.218Z,-1.54
2017-01-09T02:31:22.327Z,-1.54
2017-01-09T02:33:29.778Z,-1.54
2017-01-09T02:35:37.317Z,-1.55
2017-01-09T02:37:44.776Z,-1.54
2017-01-09T02:39:58.203Z,-1.55
2017-01-09T02:42:10.484Z,-1.54
2017-01-09T02:44:20.430Z,-1.55
2017-01-09T02:46:32.754Z,-1.55
2017-01-09T02:48:45.243Z,-1.55
2017-01-09T02:50:58.613Z,-1.55
2017-01-09T02:53:12.030Z,-1.55
2017-01-09T02:55:26.352Z,-1.55
2017-01-09T02:57:38.569Z,-1.56
2017-01-09T02:59:51.992Z,-1.56
2017-01-09T03:02:04.295Z,-1.56
2017-01-09T03:04:06.507Z,-1.56
2017-01-09T03:06:18.696Z,-1.58
2017-01-09T03:08:31.161Z,-1.58
2017-01-09T03:10:44.599Z,-1.58
2017-01-09T03:12:58.873Z,-1.56
2017-01-09T03:15:11.353Z,-1.59
2017-01-09T03:17:23.727Z,-1.59
2017-01-09T03:19:35.896Z,-1.61
2017-01-09T03:21:54.075Z,-1.59
2017-01-09T03:24:08.623Z,-1.59
2017-01-09T03:26:22.685Z,-1.61
2017-01-09T03:28:36.691Z,-1.61
2017-01-09T03:30:49.712Z,-1.61
2017-01-09T03:33:03.183Z,-1.61
2017-01-09T03:35:15.575Z,-1.61
2017-01-09T03:37:27.783Z,-1.62
2017-01-09T03:39:43.068Z,-1.62
2017-01-09T03:41:55.541Z,-1.62
2017-01-09T03:44:07.884Z,-1.62
2017-01-09T03:46:15.351Z,-1.62
2017-01-09T03:48:28.125Z,-1.64
2017-01-09T03:50:40.689Z,-1.66
2017-01-09T03:52:47.898Z,-1.64
2017-01-09T03:55:00.260Z,-1.64
2017-01-09T03:57:07.385Z,-1.66
2017-01-09T03:59:19.564Z,-1.66
2017-01-09T04:01:31.761Z,-1.64
2017-01-09T04:03:43.968Z,-1.66
2017-01-09T04:05:56.322Z,-1.64
2017-01-09T04:08:04.337Z,-1.66
2017-01-09T04:10:16.669Z,-1.66
2017-01-09T04:12:29.165Z,-1.66
2017-01-09T04:14:41.467Z,-1.67
2017-01-09T04:16:53.830Z,-1.66
2017-01-09T04:19:06.236Z,-1.66
2017-01-09T04:21:19.524Z,-1.66
2017-01-09T04:23:32.131Z,-1.66
2017-01-09T04:25:44.437Z,-1.66
2017-01-09T04:27:56.887Z,-1.67
2017-01-09T04:30:09.179Z,-1.67
2017-01-09T04:32:21.371Z,-1.67
2017-01-09T04:34:34.685Z,-1.69
2017-01-09T04:36:46.987Z,-1.69
2017-01-09T04:38:54.288Z,-1.69
2017-01-09T04:41:06.543Z,-1.69
2017-01-09T04:43:18.742Z,-1.7
2017-01-09T04:45:31.187Z,-1.7
2017-01-09T04:47:43.982Z,-1.69
2017-01-09T04:49:56.327Z,-1.7
2017-01-09T04:52:09.076Z,-1.7
2017-01-09T04:54:16.399Z,-1.72
2017-01-09T04:56:29.062Z,-1.72
2017-01-09T04:58:41.419Z,-1.73
2017-01-09T05:00:54.671Z,-1.72
2017-01-09T05:03:06.944Z,-1.73
2017-01-09T05:05:19.338Z,-1.72
2017-01-09T05:07:31.752Z,-1.72
2017-01-09T05:09:39.053Z,-1.73
2017-01-09T05:11:51.341Z,-1.73
2017-01-09T05:13:58.731Z,-1.73
2017-01-09T05:16:11.014Z,-1.73
2017-01-09T05:18:23.331Z,-1.74
2017-01-09T05:20:35.734Z,-1.73
2017-01-09T05:22:48.019Z,-1.73
2017-01-09T05:24:55.314Z,-1.73
2017-01-09T05:27:07.463Z,-1.74
2017-01-09T05:29:19.648Z,-1.73
2017-01-09T05:31:32.319Z,-1.74
2017-01-09T05:33:40.831Z,-1.74
2017-01-09T05:35:53.099Z,-1.74
2017-01-09T05:38:05.268Z,-1.74
2017-01-09T05:40:17.544Z,-1.76
2017-01-09T05:42:29.671Z,-1.76
2017-01-09T05:44:42.159Z,-1.74
2017-01-09T05:46:54.535Z,-1.76
2017-01-09T05:49:06.946Z,-1.74
2017-01-09T05:51:19.450Z,-1.74
2017-01-09T05:53:26.832Z,-1.74
2017-01-09T05:55:34.230Z,-1.74
2017-01-09T05:57:46.519Z,-1.74
2017-01-09T05:59:58.670Z,-1.76
2017-01-09T06:02:10.936Z,-1.76
2017-01-09T06:04:23.323Z,-1.74
2017-01-09T06:06:35.754Z,-1.76
2017-01-09T06:08:48.209Z,-1.77
2017-01-09T06:11:00.368Z,-1.76
2017-01-09T06:13:12.733Z,-1.76
2017-01-09T06:15:25.032Z,-1.74
2017-01-09T06:17:37.309Z,-1.76
2017-01-09T06:19:44.614Z,-1.74
2017-01-09T06:21:56.949Z,-1.76
2017-01-09T06:24:09.260Z,-1.76
2017-01-09T06:26:21.638Z,-1.74
2017-01-09T06:28:34.105Z,-1.76
2017-01-09T06:30:46.364Z,-1.74
2017-01-09T06:32:58.556Z,-1.74
2017-01-09T06:35:10.925Z,-1.76
2017-01-09T06:37:18.135Z,-1.76
2017-01-09T06:39:25.901Z,-1.74
2017-01-09T06:41:38.527Z,-1.74
2017-01-09T06:43:51.566Z,-1.74
2017-01-09T06:46:03.781Z,-1.74
2017-01-09T06:48:11.134Z,-1.76
2017-01-09T06:50:23.641Z,-1.74
2017-01-09T06:52:35.824Z,-1.74
2017-01-09T06:54:48.007Z,-1.74
2017-01-09T06:57:00.309Z,-1.74
2017-01-09T06:59:12.735Z,-1.74
2017-01-09T07:01:25.185Z,-1.76
2017-01-09T07:03:37.358Z,-1.74
2017-01-09T07:05:49.640Z,-1.76
2017-01-09T07:07:57.029Z,-1.76
2017-01-09T07:10:09.423Z,-1.74
2017-01-09T07:12:21.834Z,-1.74
2017-01-09T07:14:35.491Z,-1.73
2017-01-09T07:16:47.862Z,-1.74
2017-01-09T07:19:00.578Z,-1.74
2017-01-09T07:21:13.032Z,-1.73
2017-01-09T07:23:20.462Z,-1.72
2017-01-09T07:25:32.943Z,-1.72
2017-01-09T07:27:45.705Z,-1.73
2017-01-09T07:29:58.039Z,-1.73
2017-01-09T07:32:10.598Z,-1.7
2017-01-09T07:34:23.658Z,-1.72
2017-01-09T07:36:36.125Z,-1.72
2017-01-09T07:38:48.637Z,-1.7
2017-01-09T07:41:01.705Z,-1.7
2017-01-09T07:43:14.612Z,-1.69
2017-01-09T07:45:27.174Z,-1.69
2017-01-09T07:47:39.686Z,-1.67
2017-01-09T07:49:52.396Z,-1.66
2017-01-09T07:52:03.111Z,-1.66
2017-01-09T07:54:16.298Z,-1.64
2017-01-09T07:56:29.108Z,-1.61
2017-01-09T07:58:36.409Z,-1.61
2017-01-09T08:00:48.720Z,-1.59
2017-01-09T08:03:01.080Z,-1.58
2017-01-09T08:05:13.456Z,-1.56
2017-01-09T08:07:21.275Z,-1.56
2017-01-09T08:09:33.859Z,-1.55
2017-01-09T08:11:46.189Z,-1.54
2017-01-09T08:13:58.654Z,-0.95
2017-01-09T08:16:11.512Z,-0.72
2017-01-09T08:18:18.822Z,-0.69
2017-01-09T08:20:31.093Z,-0.72
2017-01-09T08:22:43.388Z,-0.73
2017-01-09T08:24:55.714Z,-0.78
2017-01-09T08:27:08.004Z,-0.78
2017-01-09T08:29:20.723Z,-0.75
2017-01-09T08:31:33.249Z,-0.7
2017-01-09T08:33:45.580Z,-0.6
2017-01-09T08:35:52.806Z,-0.55
2017-01-09T08:38:05.338Z,-0.47
2017-01-09T08:40:17.583Z,-0.43
2017-01-09T08:42:29.811Z,-0.36
2017-01-09T08:44:43.034Z,-0.31
2017-01-09T08:46:55.294Z,-0.23
2017-01-09T08:49:07.736Z,-0.15
2017-01-09T08:51:20.174Z,-0.14
2017-01-09T08:53:32.561Z,-0.11
2017-01-09T08:55:39.935Z,-0.1
2017-01-09T08:57:52.187Z,-0.07
2017-01-09T09:00:04.436Z,-0.05
2017-01-09T09:02:16.835Z,-0.03
2017-01-09T09:04:24.363Z,0.03
2017-01-09T09:06:31.826Z,0.04
2017-01-09T09:08:39.058Z,0.04
2017-01-09T09:10:51.215Z,0.02
2017-01-09T09:13:04.934Z,0.1
2017-01-09T09:15:18.465Z,0.14
2017-01-09T09:17:30.933Z,0.13
2017-01-09T09:19:56.892Z,0.13
2017-01-09T09:22:09.191Z,0.18
2017-01-09T09:24:34.829Z,0.29
2017-01-09T09:26:47.106Z,0.33
2017-01-09T09:28:59.313Z,0.42
2017-01-09T09:31:11.634Z,0.51
2017-01-09T09:33:23.814Z,0.61
2017-01-09T09:35:31.052Z,0.65
2017-01-09T09:37:38.524Z,0.73
2017-01-09T09:39:51.290Z,0.83
2017-01-09T09:42:03.473Z,0.87
2017-01-09T09:44:10.786Z,0.94
2017-01-09T09:46:32.084Z,1
2017-01-09T09:48:50.600Z,1.05
2017-01-09T09:51:13.869Z,1.08
2017-01-09T09:53:32.552Z,1.08
2017-01-09T09:55:46.890Z,1.08
2017-01-09T09:57:59.206Z,1.05
2017-01-09T10:00:06.570Z,1.02
2017-01-09T10:02:18.770Z,1.05
2017-01-09T10:04:31.307Z,1.12
2017-01-09T10:06:43.689Z,1.16
2017-01-09T10:08:55.993Z,1.22
2017-01-09T10:11:08.303Z,1.3
2017-01-09T10:13:20.632Z,1.36
2017-01-09T10:15:33.145Z,1.37
2017-01-09T10:17:45.497Z,1.42
2017-01-09T10:19:58.928Z,1.48
2017-01-09T10:22:11.332Z,1.52
2017-01-09T10:24:23.662Z,1.55
2017-01-09T10:26:36.022Z,1.58
2017-01-09T10:28:43.950Z,1.59
2017-01-09T10:30:56.132Z,1.6
2017-01-09T10:33:08.358Z,1.55
2017-01-09T10:35:20.650Z,1.5
2017-01-09T10:37:32.805Z,1.54
2017-01-09T10:39:45.316Z,1.62
2017-01-09T10:41:57.779Z,1.66
2017-01-09T10:44:04.922Z,1.72
2017-01-09T10:46:17.330Z,1.72
2017-01-09T10:48:24.730Z,1.72
2017-01-09T10:50:37.368Z,1.72
2017-01-09T10:52:49.998Z,1.73
2017-01-09T10:55:04.745Z,1.72
2017-01-09T10:57:17.332Z,1.72
2017-01-09T10:59:29.712Z,1.72
2017-01-09T11:01:42.135Z,1.73
2017-01-09T11:03:55.333Z,1.73
2017-01-09T11:06:07.531Z,1.73
2017-01-09T11:08:19.860Z,1.7
2017-01-09T11:10:32.101Z,1.69
2017-01-09T11:12:44.542Z,1.7
2017-01-09T11:14:56.850Z,1.68
2017-01-09T11:17:09.039Z,1.66
2017-01-09T11:19:21.243Z,1.65
2017-01-09T11:21:33.545Z,1.65
2017-01-09T11:23:45.834Z,1.63
2017-01-09T11:25:58.072Z,1.66
2017-01-09T11:28:05.439Z,1.69
2017-01-09T11:30:13.014Z,1.7
2017-01-09T11:32:25.250Z,1.7
2017-01-09T11:34:37.744Z,1.7
2017-01-09T11:36:50.026Z,1.7
2017-01-09T11:39:02.244Z,1.66
2017-01-09T11:41:14.668Z,1.66
2017-01-09T11:43:21.908Z,1.63
2017-01-09T11:45:34.224Z,1.59
2017-01-09T11:47:46.414Z,1.55
2017-01-09T11:49:58.914Z,1.54
2017-01-09T11:52:11.329Z,1.47
2017-01-09T11:54:23.647Z,1.5
2017-01-09T11:56:36.069Z,1.52
2017-01-09T11:58:43.451Z,1.58
2017-01-09T12:00:55.820Z,1.52
2017-01-09T12:03:08.110Z,1.6
2017-01-09T12:05:17.042Z,1.66
2017-01-09T12:07:24.404Z,1.65
2017-01-09T12:09:36.923Z,1.66
2017-01-09T12:11:49.186Z,1.7
2017-01-09T12:14:01.429Z,1.73
2017-01-09T12:16:13.661Z,1.72
2017-01-09T12:18:26.064Z,1.65
2017-01-09T12:20:38.559Z,1.62
2017-01-09T12:22:46.051Z,1.59
2017-01-09T12:24:58.572Z,1.54
2017-01-09T12:27:05.972Z,1.48
2017-01-09T12:29:18.222Z,1.44
2017-01-09T12:31:30.768Z,1.4
2017-01-09T12:33:39.650Z,1.42
2017-01-09T12:35:52.204Z,1.42
2017-01-09T12:37:59.906Z,1.44
2017-01-09T12:40:12.457Z,1.4
2017-01-09T12:42:24.981Z,1.37
2017-01-09T12:44:32.983Z,1.36
2017-01-09T12:46:48.357Z,1.36
2017-01-09T12:49:01.899Z,1.32
2017-01-09T12:51:17.506Z,1.32
2017-01-09T12:53:36.364Z,1.24
2017-01-09T12:55:43.814Z,1.24
2017-01-09T12:57:56.325Z,1.23
2017-01-09T13:00:10.069Z,1.2
2017-01-09T13:02:22.664Z,1.22
2017-01-09T13:04:35.267Z,1.18
2017-01-09T13:06:47.702Z,1.11
2017-01-09T13:09:00.264Z,1.08
2017-01-09T13:11:12.515Z,1.05
2017-01-09T13:13:25.038Z,1.02
2017-01-09T13:15:32.578Z,0.94
2017-01-09T13:17:40.065Z,0.9
2017-01-09T13:19:52.771Z,0.91
2017-01-09T13:22:05.177Z,0.94
2017-01-09T13:24:07.783Z,0.94
2017-01-09T13:26:20.357Z,0.87
2017-01-09T13:28:27.878Z,0.8
2017-01-09T13:30:40.371Z,0.73
2017-01-09T13:32:52.857Z,0.7
2017-01-09T13:35:05.150Z,0.68
2017-01-09T13:37:17.773Z,0.68
2017-01-09T13:39:30.068Z,0.65
2017-01-09T13:41:42.720Z,0.62
2017-01-09T13:43:55.204Z,0.53
2017-01-09T13:46:07.820Z,0.44
2017-01-09T13:48:20.459Z,0.36
2017-01-09T13:50:32.891Z,0.31
2017-01-09T13:52:40.335Z,0.24
2017-01-09T13:54:53.013Z,0.13
2017-01-09T13:57:05.834Z,-0.05
2017-01-09T13:59:18.350Z,-0.08
2017-01-09T14:01:30.850Z,-0.14
2017-01-09T14:03:43.357Z,-0.21
2017-01-09T14:05:55.839Z,-0.19
2017-01-09T14:08:03.322Z,-0.14
2017-01-09T14:10:16.411Z,-0.15
2017-01-09T14:12:29.064Z,-0.22
2017-01-09T14:14:41.355Z,-0.26
2017-01-09T14:16:53.759Z,-0.34
2017-01-09T14:19:06.376Z,-0.37
2017-01-09T14:21:18.683Z,-0.4
2017-01-09T14:23:31.185Z,-0.49
2017-01-09T14:25:43.914Z,-0.46
2017-01-09T14:27:56.516Z,-0.43
2017-01-09T14:30:09.923Z,-0.46
2017-01-09T14:32:22.562Z,-0.46
2017-01-09T14:34:35.298Z,-0.52
2017-01-09T14:36:48.851Z,-0.58
2017-01-09T14:39:01.302Z,-0.67
2017-01-09T14:41:19.157Z,-0.67
2017-01-09T14:44:11.487Z,-0.6
2017-01-09T14:46:50.749Z,-0.61
2017-01-09T14:49:03.258Z,-0.69
2017-01-09T14:51:15.721Z,-0.67
2017-01-09T14:53:28.615Z,-0.7
2017-01-09T14:55:37.433Z,-0.72
2017-01-09T14:57:44.839Z,-0.73
2017-01-09T14:59:57.340Z,-0.73
2017-01-09T15:02:09.744Z,-0.76
2017-01-09T15:04:22.365Z,-0.91
2017-01-09T15:06:35.015Z,-0.92
2017-01-09T15:08:47.743Z,-1.01
2017-01-09T15:11:00.310Z,-1.01
2017-01-09T15:13:12.801Z,-1.07
2017-01-09T15:15:20.486Z,-1.28
2017-01-09T15:17:33.112Z,-1.38
2017-01-09T15:19:40.776Z,-1.4
2017-01-09T15:21:55.125Z,-1.37
2017-01-09T15:24:07.529Z,-1.41
2017-01-09T15:26:15.128Z,-1.43
2017-01-09T15:28:29.096Z,-1.46
2017-01-09T15:30:41.906Z,-1.52
2017-01-09T15:32:50.394Z,-1.58
2017-01-09T15:35:02.807Z,-1.69
2017-01-09T15:37:15.183Z,-1.67
2017-01-09T15:39:27.786Z,-1.59
2017-01-09T15:41:40.207Z,-1.61
2017-01-09T15:43:47.929Z,-1.67
2017-01-09T15:46:00.287Z,-1.73
2017-01-09T15:48:13.018Z,-1.73
2017-01-09T15:50:26.898Z,-1.7
2017-01-09T15:52:34.354Z,-1.69
2017-01-09T15:54:46.750Z,-1.72
2017-01-09T15:56:59.078Z,-1.67
2017-01-09T15:59:11.768Z,-1.64
2017-01-09T16:01:24.627Z,-1.67
2017-01-09T16:03:37.113Z,-1.69
2017-01-09T16:05:49.664Z,-1.72
2017-01-09T16:08:01.963Z,-1.77
2017-01-09T16:10:09.492Z,-1.8
2017-01-09T16:12:21.909Z,-1.8
2017-01-09T16:14:37.864Z,-1.82
2017-01-09T16:16:51.195Z,-1.82
2017-01-09T16:19:00.412Z,-1.82
2017-01-09T16:21:14.152Z,-1.85
2017-01-09T16:23:25.007Z,-1.9
2017-01-09T16:25:38.643Z,-1.94
2017-01-09T16:27:55.619Z,-1.95
2017-01-09T16:30:08.083Z,-1.94
2017-01-09T16:32:21.548Z,-1.91
2017-01-09T16:34:34.731Z,-1.97
2017-01-09T16:36:49.564Z,-1.94
2017-01-09T16:39:04.768Z,-1.94
2017-01-09T16:41:12.527Z,-1.91
2017-01-09T16:43:29.241Z,-1.91
2017-01-09T16:45:45.360Z,-1.91
2017-01-09T16:47:57.711Z,-1.91
2017-01-09T16:50:10.276Z,-1.91
2017-01-09T16:52:22.802Z,-1.92
2017-01-09T16:54:35.265Z,-1.97
2017-01-09T16:56:47.874Z,-2.03
2017-01-09T16:59:01.547Z,-2.06
2017-01-09T17:01:21.243Z,-2.06
2017-01-09T17:03:40.744Z,-2.06
2017-01-09T17:06:16.084Z,-2.03
2017-01-09T17:08:28.727Z,-2.13
2017-01-09T17:10:42.322Z,-2.16
2017-01-09T17:12:54.859Z,-2.18
2017-01-09T17:15:07.375Z,-2.27
2017-01-09T17:17:19.974Z,-2.3
2017-01-09T17:19:32.331Z,-2.27
2017-01-09T17:21:44.656Z,-2.23
2017-01-09T17:23:52.386Z,-2.21
2017-01-09T17:26:04.750Z,-2.21
2017-01-09T17:28:17.452Z,-2.2
2017-01-09T17:30:29.976Z,-2.21
2017-01-09T17:32:42.501Z,-2.23
2017-01-09T17:34:54.746Z,-2.21
2017-01-09T17:37:07.412Z,-2.2
2017-01-09T17:39:16.233Z,-2.23
2017-01-09T17:41:29.750Z,-2.21
2017-01-09T17:43:43.656Z,-2.2
2017-01-09T17:45:56.576Z,-2.18
2017-01-09T17:48:09.708Z,-2.2
2017-01-09T17:50:23.353Z,-2.18
2017-01-09T17:52:37.403Z,-2.15
2017-01-09T17:54:50.177Z,-2.18
2017-01-09T17:56:54.338Z,-2.23
2017-01-09T17:59:10.783Z,-2.24
2017-01-09T18:01:23.905Z,-2.23
2017-01-09T18:03:36.882Z,-2.21
2017-01-09T18:05:50.139Z,-2.23
2017-01-09T18:08:08.700Z,-2.32
2017-01-09T18:10:23.595Z,-2.34
2017-01-09T18:12:32.805Z,-2.34
2017-01-09T18:14:43.056Z,-2.3
2017-01-09T18:16:53.190Z,-2.3
2017-01-09T18:19:06.884Z,-2.3
2017-01-09T18:21:19.388Z,-2.3
2017-01-09T18:23:31.992Z,-2.3
2017-01-09T18:25:44.948Z,-2.34
2017-01-09T18:28:00.329Z,-2.32
2017-01-09T18:30:14.746Z,-2.3
2017-01-09T18:32:28.452Z,-2.3
2017-01-09T18:34:43.063Z,-2.29
2017-01-09T18:36:56.522Z,-2.3
2017-01-09T18:39:10.725Z,-2.32
2017-01-09T18:41:26.065Z,-2.32
2017-01-09T18:43:39.973Z,-2.3
2017-01-09T18:45:54.713Z,-2.3
2017-01-09T18:48:09.438Z,-2.32
2017-01-09T18:50:24.826Z,-2.32
2017-01-09T18:52:37.649Z,-2.35
2017-01-09T18:54:55.196Z,-2.34
2017-01-09T18:57:10.605Z,-2.35
2017-01-09T18:59:23.397Z,-2.37
2017-01-09T19:01:41.939Z,-2.37
2017-01-09T19:04:00.713Z,-2.43
2017-01-09T19:06:18.370Z,-2.46
2017-01-09T19:09:06.221Z,-2.52
2017-01-09T19:11:14.814Z,-2.55
2017-01-09T19:13:31.478Z,-2.58
2017-01-09T19:15:42.305Z,-2.55
2017-01-09T19:17:57.508Z,-2.53
2017-01-09T19:20:13.642Z,-2.52
2017-01-09T19:22:29.827Z,-2.5
2017-01-09T19:24:47.831Z,-2.52
2017-01-09T19:27:05.745Z,-2.52
2017-01-09T19:29:22.480Z,-2.53
2017-01-09T19:31:35.574Z,-2.52
2017-01-09T19:33:51.615Z,-2.53
2017-01-09T19:36:10.770Z,-2.52
2017-01-09T19:38:27.810Z,-2.53
2017-01-09T19:40:42.763Z,-2.53
2017-01-09T19:42:57.254Z,-2.55
2017-01-09T19:45:09.567Z,-2.58
2017-01-09T19:47:24.092Z,-2.61
2017-01-09T19:49:40.724Z,-2.61
2017-01-09T19:51:56.245Z,-2.63
2017-01-09T19:54:14.303Z,-2.67
2017-01-09T19:56:33.143Z,-2.68
2017-01-09T19:58:52.224Z,-2.7
2017-01-09T20:01:09.021Z,-2.71
2017-01-09T20:03:26.090Z,-2.7
2017-01-09T20:05:48.401Z,-2.67
2017-01-09T20:08:06.383Z,-2.67
2017-01-09T20:10:37.178Z,-2.7
2017-01-09T20:12:57.919Z,-2.7
2017-01-09T20:15:21.425Z,-2.71
2017-01-09T20:18:11.724Z,-2.71
2017-01-09T20:21:13.657Z,-2.71
2017-01-09T20:24:05.529Z,-2.7
2017-01-09T20:26:35.019Z,-2.71
2017-01-09T20:29:10.957Z,-2.71
2017-01-09T20:31:33.583Z,-2.74
2017-01-09T20:34:01.317Z,-2.73
2017-01-09T20:36:38.460Z,-2.73
2017-01-09T20:39:01.644Z,-2.74
2017-01-09T20:41:38.184Z,-2.74
2017-01-09T20:44:07.512Z,-2.79
2017-01-09T20:46:36.329Z,-2.81
2017-01-09T20:49:08.341Z,-2.82
2017-01-09T20:51:54.035Z,-2.82
2017-01-09T20:54:21.184Z,-2.82
2017-01-09T20:56:41.866Z,-2.84
2017-01-09T20:59:53.840Z,-2.85
2017-01-09T21:02:46.171Z,-2.84
2017-01-09T21:05:19.544Z,-2.82
2017-01-09T21:07:40.110Z,-2.85
2017-01-09T21:10:08.539Z,-2.86
2017-01-09T21:12:33.194Z,-2.88
2017-01-09T21:15:03.599Z,-2.91
2017-01-09T21:17:19.718Z,-2.91
2017-01-09T21:19:34.460Z,-2.92
2017-01-09T21:22:05.233Z,-2.91
2017-01-09T21:24:28.582Z,-2.94
2017-01-09T21:26:59.450Z,-2.96
2017-01-09T21:29:28.586Z,-2.96
